Mead, Oklahoma
Current Conditions -  °F | °C
As of 1:35 PM on Friday 31 Oct 2014 (Local Time) from KDUA Reporting Station
Scattered Clouds Scattered Clouds  
Wind Chill: 61°   Ceiling: Unl
Heat Index: 61°   Visibility: 10mi
Dew Point: 43°   Wind: 14mph
Humidity: 52%   Direction: 340°NNW
Pressure: 30.34"   Gusts: 22mph
Location:  34°N, 96.51°W
Report Text: KDUA 311835Z AUTO 34012G19KT 280V010 10SM SCT042 16/06 A3034 RMK AO2
Loading
Personal Weather Stations






























Interactive Weather Map
Tropical Storm Tracking
New forecast layout! Learn more

10-Day Weather Forecast

Advertisements
Track Severe Weather on mobile